sensor_id;sensor_type;location;lat;lon;timestamp;pressure;altitude;pressure_sealevel;temperature;humidity
13011;BME280;6786;57.632;11.962;2024-02-04T00:00:22;99664.97;;;19.28;39.49
13011;BME280;6786;57.632;11.962;2024-02-04T00:02:51;99659.22;;;19.23;39.65
13011;BME280;6786;57.632;11.962;2024-02-04T00:05:19;99669.63;;;19.26;39.81
13011;BME280;6786;57.632;11.962;2024-02-04T00:07:49;99652.84;;;19.24;39.68
13011;BME280;6786;57.632;11.962;2024-02-04T00:10:18;99651.88;;;19.25;39.63
13011;BME280;6786;57.632;11.962;2024-02-04T00:12:47;99641.16;;;19.25;39.65
13011;BME280;6786;57.632;11.962;2024-02-04T00:15:15;99565.38;;;18.83;39.61
13011;BME280;6786;57.632;11.962;2024-02-04T00:17:44;99637.47;;;19.26;39.69
13011;BME280;6786;57.632;11.962;2024-02-04T00:20:12;99646.41;;;19.26;39.64
13011;BME280;6786;57.632;11.962;2024-02-04T00:22:41;99656.94;;;19.28;39.57
13011;BME280;6786;57.632;11.962;2024-02-04T00:25:10;99644.00;;;19.23;39.79
13011;BME280;6786;57.632;11.962;2024-02-04T00:27:40;99656.94;;;19.28;39.66
13011;BME280;6786;57.632;11.962;2024-02-04T00:30:09;99652.41;;;19.28;39.68
13011;BME280;6786;57.632;11.962;2024-02-04T00:32:37;99646.22;;;19.28;39.56
13011;BME280;6786;57.632;11.962;2024-02-04T00:35:06;99646.53;;;19.25;39.57
13011;BME280;6786;57.632;11.962;2024-02-04T00:37:34;99642.84;;;19.26;39.62
13011;BME280;6786;57.632;11.962;2024-02-04T00:40:03;99640.16;;;19.26;39.56
13011;BME280;6786;57.632;11.962;2024-02-04T00:42:33;99635.69;;;19.26;39.65
13011;BME280;6786;57.632;11.962;2024-02-04T00:45:01;99637.47;;;19.26;39.59
13011;BME280;6786;57.632;11.962;2024-02-04T00:47:30;99648.19;;;19.26;39.59
13011;BME280;6786;57.632;11.962;2024-02-04T00:49:58;99643.72;;;19.26;39.59
13011;BME280;6786;57.632;11.962;2024-02-04T00:52:27;99632.13;;;19.26;39.60
13011;BME280;6786;57.632;11.962;2024-02-04T00:54:55;99639.19;;;19.27;39.61
13011;BME280;6786;57.632;11.962;2024-02-04T00:57:23;99641.69;;;19.28;39.65
13011;BME280;6786;57.632;11.962;2024-02-04T00:59:53;99640.88;;;19.28;39.58
13011;BME280;6786;57.632;11.962;2024-02-04T01:02:21;99642.84;;;19.26;39.45
13011;BME280;6786;57.632;11.962;2024-02-04T01:04:50;99636.13;;;19.22;39.60
13011;BME280;6786;57.632;11.962;2024-02-04T01:07:18;99656.09;;;19.27;39.51
13011;BME280;6786;57.632;11.962;2024-02-04T01:09:47;99649.88;;;19.27;39.61
13011;BME280;6786;57.632;11.962;2024-02-04T01:12:15;99639.19;;;19.27;39.66
13011;BME280;6786;57.632;11.962;2024-02-04T01:14:43;99649.88;;;19.27;39.72
13011;BME280;6786;57.632;11.962;2024-02-04T01:17:13;99609.63;;;19.03;39.47
13011;BME280;6786;57.632;11.962;2024-02-04T01:19:41;99649.06;;;19.26;39.61
13011;BME280;6786;57.632;11.962;2024-02-04T01:22:10;99653.53;;;19.26;39.43
13011;BME280;6786;57.632;11.962;2024-02-04T01:24:39;99644.81;;;19.24;39.68
13011;BME280;6786;57.632;11.962;2024-02-04T01:27:07;99643.72;;;19.26;39.50
13011;BME280;6786;57.632;11.962;2024-02-04T01:29:35;99648.19;;;19.26;39.68
13011;BME280;6786;57.632;11.962;2024-02-04T01:32:04;99648.19;;;19.26;39.58
13011;BME280;6786;57.632;11.962;2024-02-04T01:34:34;99656.94;;;19.28;39.55
13011;BME280;6786;57.632;11.962;2024-02-04T01:37:03;99649.56;;;19.30;39.59
13011;BME280;6786;57.632;11.962;2024-02-04T01:39:32;99602.91;;;18.99;39.57
13011;BME280;6786;57.632;11.962;2024-02-04T01:42:00;99645.06;;;19.30;39.44
13011;BME280;6786;57.632;11.962;2024-02-04T01:44:29;99638.03;;;19.29;39.53
13011;BME280;6786;57.632;11.962;2024-02-04T01:46:57;99638.19;;;19.28;39.50
13011;BME280;6786;57.632;11.962;2024-02-04T01:49:26;99631.66;;;19.30;39.59
13011;BME280;6786;57.632;11.962;2024-02-04T01:51:56;99631.81;;;19.29;39.54
13011;BME280;6786;57.632;11.962;2024-02-04T01:54:25;99628.13;;;19.30;39.56
13011;BME280;6786;57.632;11.962;2024-02-04T01:56:55;99621.09;;;19.29;39.61
13011;BME280;6786;57.632;11.962;2024-02-04T01:59:23;99612.91;;;19.30;39.55
13011;BME280;6786;57.632;11.962;2024-02-04T02:01:58;99626.47;;;19.29;39.49
13011;BME280;6786;57.632;11.962;2024-02-04T02:04:27;99607.31;;;19.24;39.42
13011;BME280;6786;57.632;11.962;2024-02-04T02:06:57;99534.25;;;18.82;39.45
13011;BME280;6786;57.632;11.962;2024-02-04T02:09:27;99596.31;;;19.27;39.49
13011;BME280;6786;57.632;11.962;2024-02-04T02:12:02;99601.34;;;19.30;39.45
13011;BME280;6786;57.632;11.962;2024-02-04T02:14:33;99590.63;;;19.30;39.42
13011;BME280;6786;57.632;11.962;2024-02-04T02:17:07;99585.59;;;19.27;39.51
13011;BME280;6786;57.632;11.962;2024-02-04T02:19:48;99579.25;;;19.28;39.53
13011;BME280;6786;57.632;11.962;2024-02-04T02:22:28;99493.41;;;18.80;39.37
13011;BME280;6786;57.632;11.962;2024-02-04T02:24:58;99488.53;;;18.75;39.40
13011;BME280;6786;57.632;11.962;2024-02-04T02:27:27;99558.81;;;19.27;39.45
13011;BME280;6786;57.632;11.962;2024-02-04T02:29:56;99551.06;;;19.16;39.49
13011;BME280;6786;57.632;11.962;2024-02-04T02:32:24;99565.88;;;19.28;39.44
13011;BME280;6786;57.632;11.962;2024-02-04T02:34:53;99558.00;;;19.26;39.43
13011;BME280;6786;57.632;11.962;2024-02-04T02:37:27;99551.47;;;19.29;39.35
13011;BME280;6786;57.632;11.962;2024-02-04T02:40:04;99546.09;;;19.29;39.42
13011;BME280;6786;57.632;11.962;2024-02-04T02:42:34;99556.81;;;19.29;39.38
13011;BME280;6786;57.632;11.962;2024-02-04T02:45:05;99546.72;;;19.23;39.52
13011;BME280;6786;57.632;11.962;2024-02-04T02:47:35;99545.09;;;19.30;39.38
13011;BME280;6786;57.632;11.962;2024-02-04T02:50:05;99432.47;;;18.58;39.57
13011;BME280;6786;57.632;11.962;2024-02-04T02:52:34;99558.47;;;19.30;39.53
13011;BME280;6786;57.632;11.962;2024-02-04T02:55:04;99537.69;;;19.24;39.50
13011;BME280;6786;57.632;11.962;2024-02-04T02:57:33;99544.72;;;19.25;39.53
13011;BME280;6786;57.632;11.962;2024-02-04T03:00:01;99549.78;;;19.28;39.52
13011;BME280;6786;57.632;11.962;2024-02-04T03:02:30;99544.44;;;19.28;39.54
13011;BME280;6786;57.632;11.962;2024-02-04T03:04:58;99534.34;;;19.22;39.48
13011;BME280;6786;57.632;11.962;2024-02-04T03:07:27;99539.09;;;19.28;39.47
13011;BME280;6786;57.632;11.962;2024-02-04T03:09:55;99532.03;;;19.27;39.63
13011;BME280;6786;57.632;11.962;2024-02-04T03:12:25;99519.63;;;19.26;39.51
13011;BME280;6786;57.632;11.962;2024-02-04T03:14:53;99518.94;;;19.24;39.54
13011;BME280;6786;57.632;11.962;2024-02-04T03:17:22;99520.63;;;19.25;39.46
13011;BME280;6786;57.632;11.962;2024-02-04T03:19:50;99517.94;;;19.25;39.53
13011;BME280;6786;57.632;11.962;2024-02-04T03:22:21;99503.53;;;19.26;39.66
13011;BME280;6786;57.632;11.962;2024-02-04T03:24:50;99500.88;;;19.26;39.52
13011;BME280;6786;57.632;11.962;2024-02-04T03:27:18;99477.41;;;19.20;39.51
13011;BME280;6786;57.632;11.962;2024-02-04T03:29:48;99485.81;;;19.25;39.42
13011;BME280;6786;57.632;11.962;2024-02-04T03:32:16;99479.75;;;19.23;39.61
13011;BME280;6786;57.632;11.962;2024-02-04T03:34:45;99476.75;;;19.26;39.57
13011;BME280;6786;57.632;11.962;2024-02-04T03:37:13;99480.44;;;19.25;39.54
13011;BME280;6786;57.632;11.962;2024-02-04T03:39:41;99476.75;;;19.26;39.49
13011;BME280;6786;57.632;11.962;2024-02-04T03:42:10;99459.84;;;19.25;39.49
13011;BME280;6786;57.632;11.962;2024-02-04T03:44:38;99438.56;;;19.24;39.47
13011;BME280;6786;57.632;11.962;2024-02-04T03:47:08;99301.31;;;18.34;39.62
13011;BME280;6786;57.632;11.962;2024-02-04T03:49:36;99452.50;;;19.27;39.42
13011;BME280;6786;57.632;11.962;2024-02-04T03:52:05;99451.66;;;19.27;39.49
13011;BME280;6786;57.632;11.962;2024-02-04T03:54:34;99440.13;;;19.26;39.49
13011;BME280;6786;57.632;11.962;2024-02-04T03:57:02;99417.81;;;19.26;39.57
13011;BME280;6786;57.632;11.962;2024-02-04T03:59:30;99416.16;;;19.25;39.61
13011;BME280;6786;57.632;11.962;2024-02-04T04:01:59;99410.81;;;19.25;39.55
13011;BME280;6786;57.632;11.962;2024-02-04T04:04:28;99420.66;;;19.24;39.60
13011;BME280;6786;57.632;11.962;2024-02-04T04:06:57;99414.16;;;19.19;39.51
13011;BME280;6786;57.632;11.962;2024-02-04T04:09:26;99419.81;;;19.24;39.52
13011;BME280;6786;57.632;11.962;2024-02-04T04:11:55;99409.09;;;19.24;39.44
13011;BME280;6786;57.632;11.962;2024-02-04T04:14:24;99400.09;;;19.25;39.41
13011;BME280;6786;57.632;11.962;2024-02-04T04:16:52;99395.72;;;19.24;39.65
13011;BME280;6786;57.632;11.962;2024-02-04T04:19:21;99400.09;;;19.25;39.56
13011;BME280;6786;57.632;11.962;2024-02-04T04:21:51;99410.81;;;19.25;39.49
13011;BME280;6786;57.632;11.962;2024-02-04T04:24:20;99403.75;;;19.24;39.65
13011;BME280;6786;57.632;11.962;2024-02-04T04:26:49;99384.84;;;19.25;39.58
13011;BME280;6786;57.632;11.962;2024-02-04T04:29:17;99374.13;;;19.25;39.53
13011;BME280;6786;57.632;11.962;2024-02-04T04:31:45;99305.38;;;18.78;39.40
13011;BME280;6786;57.632;11.962;2024-02-04T04:34:14;99384.03;;;19.25;39.54
13011;BME280;6786;57.632;11.962;2024-02-04T04:36:45;99391.91;;;19.26;39.46
13011;BME280;6786;57.632;11.962;2024-02-04T04:39:15;99382.69;;;19.29;39.40
13011;BME280;6786;57.632;11.962;2024-02-04T04:41:44;99382.69;;;19.29;39.33
13011;BME280;6786;57.632;11.962;2024-02-04T04:44:12;99355.41;;;19.17;39.48
13011;BME280;6786;57.632;11.962;2024-02-04T04:46:41;99376.66;;;19.27;39.41
13011;BME280;6786;57.632;11.962;2024-02-04T04:49:09;99373.81;;;19.28;39.52
13011;BME280;6786;57.632;11.962;2024-02-04T04:51:38;99363.09;;;19.28;39.45
13011;BME280;6786;57.632;11.962;2024-02-04T04:54:06;99365.13;;;19.26;39.55
13011;BME280;6786;57.632;11.962;2024-02-04T04:56:39;99360.25;;;19.30;39.56
13011;BME280;6786;57.632;11.962;2024-02-04T04:59:09;99359.44;;;19.29;39.44
13011;BME280;6786;57.632;11.962;2024-02-04T05:01:37;99365.94;;;19.27;39.47
13011;BME280;6786;57.632;11.962;2024-02-04T05:04:06;99344.53;;;19.27;39.52
13011;BME280;6786;57.632;11.962;2024-02-04T05:06:34;99348.19;;;19.26;39.40
13011;BME280;6786;57.632;11.962;2024-02-04T05:09:02;99354.25;;;19.28;39.55
13011;BME280;6786;57.632;11.962;2024-02-04T05:11:31;99327.25;;;19.21;39.41
13011;BME280;6786;57.632;11.962;2024-02-04T05:14:00;99332.81;;;19.28;39.35
13011;BME280;6786;57.632;11.962;2024-02-04T05:16:30;99251.84;;;18.78;39.40
13011;BME280;6786;57.632;11.962;2024-02-04T05:18:58;99317.41;;;19.30;39.36
13011;BME280;6786;57.632;11.962;2024-02-04T05:21:26;99322.28;;;19.26;39.38
13011;BME280;6786;57.632;11.962;2024-02-04T05:23:55;99311.22;;;19.29;39.36
13011;BME280;6786;57.632;11.962;2024-02-04T05:26:23;99306.69;;;19.30;39.44
13011;BME280;6786;57.632;11.962;2024-02-04T05:28:51;99314.06;;;19.28;39.45
13011;BME280;6786;57.632;11.962;2024-02-04T05:31:21;99299.66;;;19.29;39.46
13011;BME280;6786;57.632;11.962;2024-02-04T05:33:51;99300.69;;;19.28;39.55
13011;BME280;6786;57.632;11.962;2024-02-04T05:36:20;99304.16;;;19.28;39.30
13011;BME280;6786;57.632;11.962;2024-02-04T05:38:48;99280.53;;;19.24;39.51
13011;BME280;6786;57.632;11.962;2024-02-04T05:41:17;99272.88;;;19.29;39.46
13011;BME280;6786;57.632;11.962;2024-02-04T05:43:45;99189.31;;;18.79;39.32
13011;BME280;6786;57.632;11.962;2024-02-04T05:46:13;99257.13;;;19.26;39.34
13011;BME280;6786;57.632;11.962;2024-02-04T05:48:43;99272.88;;;19.29;39.40
13011;BME280;6786;57.632;11.962;2024-02-04T05:51:12;99258.81;;;19.27;39.41
13011;BME280;6786;57.632;11.962;2024-02-04T05:53:41;99265.69;;;19.29;39.39
13011;BME280;6786;57.632;11.962;2024-02-04T05:56:09;99246.41;;;19.26;39.40
13011;BME280;6786;57.632;11.962;2024-02-04T05:58:37;99242.38;;;19.30;39.44
13011;BME280;6786;57.632;11.962;2024-02-04T06:01:05;99230.03;;;19.29;39.36
13011;BME280;6786;57.632;11.962;2024-02-04T06:03:34;99230.03;;;19.29;39.42
13011;BME280;6786;57.632;11.962;2024-02-04T06:06:05;99227.34;;;19.29;39.39
13011;BME280;6786;57.632;11.962;2024-02-04T06:08:33;99214.25;;;19.26;39.46
13011;BME280;6786;57.632;11.962;2024-02-04T06:11:01;99216.63;;;19.29;39.41
13011;BME280;6786;57.632;11.962;2024-02-04T06:13:30;99207.09;;;19.26;39.39
13011;BME280;6786;57.632;11.962;2024-02-04T06:15:58;99221.31;;;19.27;39.43
13011;BME280;6786;57.632;11.962;2024-02-04T06:18:27;99221.31;;;19.27;39.49
13011;BME280;6786;57.632;11.962;2024-02-04T06:20:55;99212.59;;;19.25;39.47
13011;BME280;6786;57.632;11.962;2024-02-04T06:23:25;99145.13;;;18.75;39.46
13011;BME280;6786;57.632;11.962;2024-02-04T06:25:53;99223.31;;;19.25;39.57
13011;BME280;6786;57.632;11.962;2024-02-04T06:28:21;99228.66;;;19.25;39.53
13011;BME280;6786;57.632;11.962;2024-02-04T06:30:50;99231.22;;;19.26;39.47
13011;BME280;6786;57.632;11.962;2024-02-04T06:33:18;99223.31;;;19.25;39.23
13011;BME280;6786;57.632;11.962;2024-02-04T06:35:48;99227.50;;;19.27;39.46
13011;BME280;6786;57.632;11.962;2024-02-04T06:38:16;99213.59;;;19.24;39.51
13011;BME280;6786;57.632;11.962;2024-02-04T06:40:46;99134.09;;;18.78;39.33
13011;BME280;6786;57.632;11.962;2024-02-04T06:43:15;99219.63;;;19.26;39.50
13011;BME280;6786;57.632;11.962;2024-02-04T06:45:43;99161.50;;;18.88;39.41
13011;BME280;6786;57.632;11.962;2024-02-04T06:48:12;99216.94;;;19.26;39.46
13011;BME280;6786;57.632;11.962;2024-02-04T06:50:40;99197.53;;;19.24;39.50
13011;BME280;6786;57.632;11.962;2024-02-04T06:53:10;99119.06;;;18.69;39.50
13011;BME280;6786;57.632;11.962;2024-02-04T06:55:39;99216.25;;;19.24;39.50
13011;BME280;6786;57.632;11.962;2024-02-04T06:58:08;99209.25;;;19.23;39.55
13011;BME280;6786;57.632;11.962;2024-02-04T07:00:37;99205.56;;;19.24;39.51
13011;BME280;6786;57.632;11.962;2024-02-04T07:03:06;99194.84;;;19.24;39.51
13011;BME280;6786;57.632;11.962;2024-02-04T07:05:35;99194.84;;;19.24;39.50
13011;BME280;6786;57.632;11.962;2024-02-04T07:08:03;99201.88;;;19.25;39.46
13011;BME280;6786;57.632;11.962;2024-02-04T07:10:32;99130.78;;;18.76;39.45
13011;BME280;6786;57.632;11.962;2024-02-04T07:13:00;99182.13;;;19.26;39.46
13011;BME280;6786;57.632;11.962;2024-02-04T07:15:30;99199.88;;;19.27;39.32
13011;BME280;6786;57.632;11.962;2024-02-04T07:17:58;99199.88;;;19.27;39.46
13011;BME280;6786;57.632;11.962;2024-02-04T07:20:27;99178.44;;;19.27;39.47
13011;BME280;6786;57.632;11.962;2024-02-04T07:22:56;99196.53;;;19.25;39.47
13011;BME280;6786;57.632;11.962;2024-02-04T07:25:24;99190.84;;;19.28;39.45
13011;BME280;6786;57.632;11.962;2024-02-04T07:27:53;99190.84;;;19.28;39.54
13011;BME280;6786;57.632;11.962;2024-02-04T07:30:22;99188.19;;;19.28;39.51
13011;BME280;6786;57.632;11.962;2024-02-04T07:32:52;99176.75;;;19.26;39.50
13011;BME280;6786;57.632;11.962;2024-02-04T07:35:20;99177.47;;;19.28;39.45
13011;BME280;6786;57.632;11.962;2024-02-04T07:37:48;99167.75;;;19.27;39.42
13011;BME280;6786;57.632;11.962;2024-02-04T07:40:17;99171.41;;;19.26;39.56
13011;BME280;6786;57.632;11.962;2024-02-04T07:42:45;99146.31;;;19.27;39.47
13011;BME280;6786;57.632;11.962;2024-02-04T07:45:14;99085.91;;;18.86;39.29
13011;BME280;6786;57.632;11.962;2024-02-04T07:47:42;99151.66;;;19.27;39.52
13011;BME280;6786;57.632;11.962;2024-02-04T07:50:12;99146.31;;;19.27;39.67
13011;BME280;6786;57.632;11.962;2024-02-04T07:52:41;99135.59;;;19.27;39.45
13011;BME280;6786;57.632;11.962;2024-02-04T07:55:11;99160.69;;;19.26;39.48
13011;BME280;6786;57.632;11.962;2024-02-04T07:57:39;99164.06;;;19.28;39.43
13011;BME280;6786;57.632;11.962;2024-02-04T08:00:08;99072.53;;;18.78;39.56
13011;BME280;6786;57.632;11.962;2024-02-04T08:02:37;99046.13;;;18.75;39.37
13011;BME280;6786;57.632;11.962;2024-02-04T08:05:06;99062.84;;;18.77;39.49
13011;BME280;6786;57.632;11.962;2024-02-04T08:07:36;99059.50;;;18.75;39.46
13011;BME280;6786;57.632;11.962;2024-02-04T08:10:06;99135.91;;;19.24;39.55
13011;BME280;6786;57.632;11.962;2024-02-04T08:12:34;99133.91;;;19.26;39.57
13011;BME280;6786;57.632;11.962;2024-02-04T08:15:03;99135.59;;;19.27;39.50
13011;BME280;6786;57.632;11.962;2024-02-04T08:17:32;99139.25;;;19.26;39.57
13011;BME280;6786;57.632;11.962;2024-02-04T08:20:01;99139.25;;;19.26;39.55
13011;BME280;6786;57.632;11.962;2024-02-04T08:22:31;99133.91;;;19.26;39.55
13011;BME280;6786;57.632;11.962;2024-02-04T08:25:00;99126.91;;;19.25;39.59
13011;BME280;6786;57.632;11.962;2024-02-04T08:27:30;99125.88;;;19.26;39.57
13011;BME280;6786;57.632;11.962;2024-02-04T08:29:58;99128.56;;;19.26;39.43
13011;BME280;6786;57.632;11.962;2024-02-04T08:32:25;99111.63;;;19.25;39.44
13011;BME280;6786;57.632;11.962;2024-02-04T08:34:53;99115.03;;;19.27;39.41
13011;BME280;6786;57.632;11.962;2024-02-04T08:37:22;99117.53;;;19.29;39.31
13011;BME280;6786;57.632;11.962;2024-02-04T08:39:54;99114.00;;;19.28;39.40
13011;BME280;6786;57.632;11.962;2024-02-04T08:42:24;99115.88;;;19.28;39.47
13011;BME280;6786;57.632;11.962;2024-02-04T08:44:52;99112.16;;;19.29;39.45
13011;BME280;6786;57.632;11.962;2024-02-04T08:47:21;99105.16;;;19.28;39.47
13011;BME280;6786;57.632;11.962;2024-02-04T08:49:49;99117.53;;;19.29;39.49
13011;BME280;6786;57.632;11.962;2024-02-04T08:52:18;99112.16;;;19.29;39.54
13011;BME280;6786;57.632;11.962;2024-02-04T08:54:46;99092.81;;;19.11;39.51
13011;BME280;6786;57.632;11.962;2024-02-04T08:57:15;99096.09;;;19.29;39.51
13011;BME280;6786;57.632;11.962;2024-02-04T08:59:45;99115.03;;;19.27;39.52
13011;BME280;6786;57.632;11.962;2024-02-04T09:02:14;99098.09;;;19.27;39.41
13011;BME280;6786;57.632;11.962;2024-02-04T09:04:43;99126.56;;;19.28;39.44
13011;BME280;6786;57.632;11.962;2024-02-04T09:07:11;99098.94;;;19.27;39.47
13011;BME280;6786;57.632;11.962;2024-02-04T09:09:40;99082.88;;;19.27;39.46
13011;BME280;6786;57.632;11.962;2024-02-04T09:12:09;99076.69;;;19.27;39.43
13011;BME280;6786;57.632;11.962;2024-02-04T09:14:37;99073.31;;;19.25;39.44
13011;BME280;6786;57.632;11.962;2024-02-04T09:17:07;99082.34;;;19.24;39.54
13011;BME280;6786;57.632;11.962;2024-02-04T09:19:38;99059.78;;;19.26;39.48
13011;BME280;6786;57.632;11.962;2024-02-04T09:22:09;99065.97;;;19.27;39.51
13011;BME280;6786;57.632;11.962;2024-02-04T09:24:37;99061.59;;;19.26;39.57
13011;BME280;6786;57.632;11.962;2024-02-04T09:27:05;99064.28;;;19.26;39.53
13011;BME280;6786;57.632;11.962;2024-02-04T09:29:34;99074.97;;;19.26;39.46
13011;BME280;6786;57.632;11.962;2024-02-04T09:32:03;99071.31;;;19.27;39.45
13011;BME280;6786;57.632;11.962;2024-02-04T09:34:33;99080.34;;;19.26;39.64
13011;BME280;6786;57.632;11.962;2024-02-04T09:37:02;99074.97;;;19.26;39.61
13011;BME280;6786;57.632;11.962;2024-02-04T09:39:31;99091.06;;;19.26;39.57
13011;BME280;6786;57.632;11.962;2024-02-04T09:41:59;99091.06;;;19.26;39.58
13011;BME280;6786;57.632;11.962;2024-02-04T09:44:28;99087.72;;;19.24;39.54
13011;BME280;6786;57.632;11.962;2024-02-04T09:46:59;99074.00;;;19.27;39.51
13011;BME280;6786;57.632;11.962;2024-02-04T09:49:28;99085.69;;;19.26;39.62
13011;BME280;6786;57.632;11.962;2024-02-04T09:52:04;99085.03;;;19.24;39.63
13011;BME280;6786;57.632;11.962;2024-02-04T09:54:39;99110.81;;;19.25;39.66
13011;BME280;6786;57.632;11.962;2024-02-04T09:57:08;99105.47;;;19.25;39.58
13011;BME280;6786;57.632;11.962;2024-02-04T09:59:37;99090.44;;;19.16;39.51
13011;BME280;6786;57.632;11.962;2024-02-04T10:02:07;99093.41;;;19.21;39.60
13011;BME280;6786;57.632;11.962;2024-02-04T10:04:35;99083.72;;;19.28;39.50
13011;BME280;6786;57.632;11.962;2024-02-04T10:07:05;99084.84;;;19.25;39.42
13011;BME280;6786;57.632;11.962;2024-02-04T10:09:34;99088.22;;;19.27;39.56
13011;BME280;6786;57.632;11.962;2024-02-04T10:12:03;99096.09;;;19.29;39.45
13011;BME280;6786;57.632;11.962;2024-02-04T10:14:32;99108.47;;;19.30;39.54
13011;BME280;6786;57.632;11.962;2024-02-04T10:17:00;99113.81;;;19.30;39.64
13011;BME280;6786;57.632;11.962;2024-02-04T10:19:29;99108.47;;;19.30;39.50
13011;BME280;6786;57.632;11.962;2024-02-04T10:21:59;99053.94;;;18.84;39.56
13011;BME280;6786;57.632;11.962;2024-02-04T10:24:29;99122.88;;;19.29;39.45
13011;BME280;6786;57.632;11.962;2024-02-04T10:26:58;99128.22;;;19.29;39.61
13011;BME280;6786;57.632;11.962;2024-02-04T10:29:26;99058.81;;;18.81;39.49
13011;BME280;6786;57.632;11.962;2024-02-04T10:31:55;99106.81;;;19.29;39.78
13011;BME280;6786;57.632;11.962;2024-02-04T10:34:26;99112.16;;;19.29;39.46
13011;BME280;6786;57.632;11.962;2024-02-04T10:36:55;99111.16;;;19.30;39.51
13011;BME280;6786;57.632;11.962;2024-02-04T10:39:24;99116.50;;;19.30;39.42
13011;BME280;6786;57.632;11.962;2024-02-04T10:41:56;99108.47;;;19.30;39.55
13011;BME280;6786;57.632;11.962;2024-02-04T10:44:28;99037.72;;;18.86;39.46
13011;BME280;6786;57.632;11.962;2024-02-04T10:47:05;99107.13;;;19.26;39.39
13011;BME280;6786;57.632;11.962;2024-02-04T10:49:34;99099.78;;;19.28;39.61
13011;BME280;6786;57.632;11.962;2024-02-04T10:52:07;99101.44;;;19.29;39.55
13011;BME280;6786;57.632;11.962;2024-02-04T10:54:36;99084.53;;;19.28;39.42
13011;BME280;6786;57.632;11.962;2024-02-04T10:57:12;98934.75;;;18.43;39.58
13011;BME280;6786;57.632;11.962;2024-02-04T10:59:42;99073.81;;;19.28;39.48
13011;BME280;6786;57.632;11.962;2024-02-04T11:02:11;99071.16;;;19.28;39.53
13011;BME280;6786;57.632;11.962;2024-02-04T11:04:41;99012.94;;;18.92;39.49
13011;BME280;6786;57.632;11.962;2024-02-04T11:07:10;99078.38;;;19.28;39.70
13011;BME280;6786;57.632;11.962;2024-02-04T11:09:39;99059.78;;;19.26;39.55
13011;BME280;6786;57.632;11.962;2024-02-04T11:12:13;99067.66;;;19.28;39.51
13011;BME280;6786;57.632;11.962;2024-02-04T11:14:49;99072.66;;;19.31;39.57
13011;BME280;6786;57.632;11.962;2024-02-04T11:17:29;99073.66;;;19.30;39.45
13011;BME280;6786;57.632;11.962;2024-02-04T11:20:23;99076.31;;;19.30;39.52
13011;BME280;6786;57.632;11.962;2024-02-04T11:23:10;99011.28;;;18.91;39.49
13011;BME280;6786;57.632;11.962;2024-02-04T11:25:46;99076.31;;;19.30;39.49
13011;BME280;6786;57.632;11.962;2024-02-04T11:28:19;99067.66;;;19.28;39.46
13011;BME280;6786;57.632;11.962;2024-02-04T11:30:48;99073.81;;;19.28;39.57
13011;BME280;6786;57.632;11.962;2024-02-04T11:33:19;99059.63;;;19.28;39.52
13011;BME280;6786;57.632;11.962;2024-02-04T11:35:58;99067.66;;;19.28;39.51
13011;BME280;6786;57.632;11.962;2024-02-04T11:38:31;99059.63;;;19.28;39.54
13011;BME280;6786;57.632;11.962;2024-02-04T11:40:59;99049.06;;;19.26;39.69
13011;BME280;6786;57.632;11.962;2024-02-04T11:43:32;99051.59;;;19.28;39.51
13011;BME280;6786;57.632;11.962;2024-02-04T11:46:03;99069.31;;;19.29;39.40
13011;BME280;6786;57.632;11.962;2024-02-04T11:48:33;99038.19;;;19.28;39.65
13011;BME280;6786;57.632;11.962;2024-02-04T11:51:04;99013.69;;;19.08;39.37
13011;BME280;6786;57.632;11.962;2024-02-04T11:53:35;99038.81;;;19.30;39.56
13011;BME280;6786;57.632;11.962;2024-02-04T11:56:05;99045.03;;;19.30;39.53
13011;BME280;6786;57.632;11.962;2024-02-04T11:58:37;99035.50;;;19.28;39.55
13011;BME280;6786;57.632;11.962;2024-02-04T12:01:09;99042.53;;;19.29;39.60
13011;BME280;6786;57.632;11.962;2024-02-04T12:03:39;99060.59;;;19.27;39.49
13011;BME280;6786;57.632;11.962;2024-02-04T12:06:07;99047.88;;;19.29;39.51
13011;BME280;6786;57.632;11.962;2024-02-04T12:08:37;99053.25;;;19.29;39.66
13011;BME280;6786;57.632;11.962;2024-02-04T12:11:08;99058.59;;;19.29;39.52
13011;BME280;6786;57.632;11.962;2024-02-04T12:13:39;98996.25;;;18.82;39.62
13011;BME280;6786;57.632;11.962;2024-02-04T12:16:09;99045.38;;;19.27;39.55
13011;BME280;6786;57.632;11.962;2024-02-04T12:18:47;99048.91;;;19.28;39.60
13011;BME280;6786;57.632;11.962;2024-02-04T12:21:16;99041.84;;;19.27;39.54
13011;BME280;6786;57.632;11.962;2024-02-04T12:23:45;99036.50;;;19.27;39.67
13011;BME280;6786;57.632;11.962;2024-02-04T12:26:13;99043.53;;;19.28;39.60
13011;BME280;6786;57.632;11.962;2024-02-04T12:28:43;99030.47;;;19.25;39.50
13011;BME280;6786;57.632;11.962;2024-02-04T12:31:17;99041.84;;;19.27;39.62
13011;BME280;6786;57.632;11.962;2024-02-04T12:33:55;99019.44;;;19.20;39.47
13011;BME280;6786;57.632;11.962;2024-02-04T12:36:26;99037.50;;;19.26;39.69
13011;BME280;6786;57.632;11.962;2024-02-04T12:38:55;98960.44;;;18.83;39.60
13011;BME280;6786;57.632;11.962;2024-02-04T12:41:24;99051.59;;;19.28;39.55
13011;BME280;6786;57.632;11.962;2024-02-04T12:43:55;99045.69;;;19.24;39.45
13011;BME280;6786;57.632;11.962;2024-02-04T12:46:24;99042.19;;;19.24;39.60
13011;BME280;6786;57.632;11.962;2024-02-04T12:48:52;99058.59;;;19.29;39.49
13011;BME280;6786;57.632;11.962;2024-02-04T12:51:25;98982.22;;;18.80;39.48
13011;BME280;6786;57.632;11.962;2024-02-04T12:54:04;99058.59;;;19.29;39.49
13011;BME280;6786;57.632;11.962;2024-02-04T12:56:41;99036.00;;;19.23;39.59
13011;BME280;6786;57.632;11.962;2024-02-04T12:59:10;98973.16;;;18.81;39.59
13011;BME280;6786;57.632;11.962;2024-02-04T13:01:39;99034.31;;;19.30;39.52
13011;BME280;6786;57.632;11.962;2024-02-04T13:04:08;99012.88;;;19.30;39.44
13011;BME280;6786;57.632;11.962;2024-02-04T13:06:38;99037.16;;;19.29;39.45
13011;BME280;6786;57.632;11.962;2024-02-04T13:09:06;98957.47;;;18.78;39.38
13011;BME280;6786;57.632;11.962;2024-02-04T13:11:36;99044.19;;;19.30;39.48